Time;durP1;ratioP1;P1;durP2;ratioP2;P2;SDS_P1;SDS_P2;PMS_P1;PMS_P2;Temp;Humidity;BMP_temperature;BMP_pressure;BME280_temperature;BME280_humidity;BME280_pressure;Samples;Min_cycle;Max_cycle;Signal;HPM_P1;HPM_P2
2022/07/15 00:01:17;;;;;;;5.82;1.63;;;21.10;83.10;;;;;;5059671;28;20200;-47
2022/07/15 00:03:46;;;;;;;3.92;1.33;;;21.00;82.60;;;;;;5034553;28;20236;-48
2022/07/15 00:06:18;;;;;;;4.50;1.80;;;20.80;82.70;;;;;;5035552;28;20219;-48
2022/07/15 00:08:50;;;;;;;4.03;1.65;;;20.70;82.80;;;;;;5027894;28;20263;-48
2022/07/15 00:11:17;;;;;;;5.15;1.65;;;20.60;82.70;;;;;;5026564;28;20213;-48
2022/07/15 00:13:51;;;;;;;2.50;1.48;;;20.50;82.80;;;;;;5027066;28;20209;-48
2022/07/15 00:16:21;;;;;;;3.35;1.50;;;20.50;82.80;;;;;;5026474;28;20239;-48
2022/07/15 00:18:49;;;;;;;4.68;2.00;;;20.40;83.00;;;;;;5028664;28;20587;-46
2022/07/15 00:21:16;;;;;;;4.70;1.67;;;20.40;82.90;;;;;;5047930;28;20200;-47
2022/07/15 00:23:43;;;;;;;4.25;1.40;;;20.30;83.10;;;;;;5032058;28;20205;-47
2022/07/15 00:26:13;;;;;;;6.05;1.83;;;20.20;83.00;;;;;;5027953;28;20209;-47
2022/07/15 00:28:42;;;;;;;5.45;1.63;;;20.20;83.10;;;;;;5028200;28;20197;-49
2022/07/15 00:31:09;;;;;;;3.00;1.60;;;20.10;83.10;;;;;;5028280;28;20286;-49
2022/07/15 00:33:37;;;;;;;3.15;1.40;;;20.10;83.30;;;;;;5031734;28;20646;-49
2022/07/15 00:36:05;;;;;;;5.03;1.70;;;20.10;83.30;;;;;;5032160;28;20220;-49
2022/07/15 00:38:32;;;;;;;5.03;1.63;;;20.00;83.20;;;;;;5048501;28;20214;-49
2022/07/15 00:40:59;;;;;;;4.85;1.75;;;20.00;83.20;;;;;;5050966;28;20563;-49
2022/07/15 00:43:27;;;;;;;5.00;1.40;;;20.00;83.40;;;;;;5051589;28;20227;-49
2022/07/15 00:45:54;;;;;;;3.15;1.60;;;19.90;83.30;;;;;;5050403;28;20224;-49
2022/07/15 00:48:23;;;;;;;4.60;1.75;;;19.90;83.30;;;;;;5033240;28;20623;-49
2022/07/15 00:50:53;;;;;;;4.43;1.65;;;19.90;83.50;;;;;;5046989;28;20648;-49
2022/07/15 00:53:21;;;;;;;3.65;1.50;;;19.80;83.40;;;;;;5036679;28;20671;-49
2022/07/15 00:55:52;;;;;;;4.53;1.63;;;19.80;83.60;;;;;;5051488;28;20254;-49
2022/07/15 00:58:23;;;;;;;5.15;1.90;;;19.80;83.60;;;;;;5043789;28;20245;-49
2022/07/15 01:00:51;;;;;;;3.45;1.67;;;19.80;83.50;;;;;;5034870;28;20212;-47
2022/07/15 01:03:20;;;;;;;5.82;1.92;;;19.80;83.60;;;;;;5030659;28;20200;-47
2022/07/15 01:05:48;;;;;;;5.07;1.67;;;19.70;83.50;;;;;;5037040;28;20197;-47
2022/07/15 01:08:18;;;;;;;3.25;1.70;;;19.70;83.50;;;;;;5033254;28;20629;-47
2022/07/15 01:10:49;;;;;;;4.70;2.10;;;19.70;83.70;;;;;;5032747;28;20267;-47
2022/07/15 01:13:18;;;;;;;6.30;1.80;;;19.70;83.70;;;;;;5033088;28;20613;-47
2022/07/15 01:15:45;;;;;;;5.88;1.75;;;19.70;83.80;;;;;;5033722;28;20751;-47
2022/07/15 01:18:13;;;;;;;4.57;1.70;;;19.60;83.80;;;;;;5031866;28;20567;-48
2022/07/15 01:20:42;;;;;;;4.25;1.90;;;19.60;83.90;;;;;;5032145;28;20217;-47
2022/07/15 01:23:09;;;;;;;6.68;1.90;;;19.60;83.90;;;;;;5033140;28;20595;-48
2022/07/15 01:25:36;;;;;;;6.90;1.50;;;19.50;83.90;;;;;;5031753;28;20229;-47
2022/07/15 01:28:07;;;;;;;4.60;1.52;;;19.50;83.90;;;;;;5035627;28;20287;-47
2022/07/15 01:30:37;;;;;;;6.13;2.03;;;19.50;84.00;;;;;;5045184;28;20606;-47
2022/07/15 01:33:04;;;;;;;5.22;2.05;;;19.40;84.80;;;;;;5030840;28;20212;-47
2022/07/15 01:35:32;;;;;;;4.78;2.17;;;19.40;83.90;;;;;;5030921;28;20238;-48
2022/07/15 01:37:59;;;;;;;5.90;1.65;;;19.40;84.10;;;;;;5048610;28;20232;-47
2022/07/15 01:40:26;;;;;;;4.57;2.13;;;19.40;84.30;;;;;;5051226;28;20262;-47
2022/07/15 01:42:54;;;;;;;5.00;1.60;;;19.30;84.10;;;;;;5050381;28;20200;-48
2022/07/15 01:45:21;;;;;;;4.53;1.67;;;19.30;84.00;;;;;;5050284;28;20223;-47
2022/07/15 01:47:52;;;;;;;3.80;1.80;;;19.30;84.30;;;;;;5049413;28;20238;-47
2022/07/15 01:50:20;;;;;;;4.28;1.75;;;19.30;84.20;;;;;;5050615;28;20312;-48
2022/07/15 01:52:47;;;;;;;3.28;1.60;;;19.30;84.40;;;;;;5050780;28;20262;-47
2022/07/15 01:55:14;;;;;;;6.45;1.90;;;19.20;84.20;;;;;;5049054;28;20262;-47
2022/07/15 01:57:44;;;;;;;4.15;1.80;;;19.20;84.40;;;;;;5038664;28;20283;-47
2022/07/15 02:00:12;;;;;;;4.85;1.83;;;19.20;84.10;;;;;;5056042;28;20220;-47
2022/07/15 02:02:42;;;;;;;7.75;1.88;;;19.20;84.40;;;;;;5038050;28;20201;-48
2022/07/15 02:05:10;;;;;;;3.83;1.80;;;19.20;84.60;;;;;;5040169;28;20295;-47
2022/07/15 02:07:39;;;;;;;9.13;2.05;;;19.10;84.50;;;;;;5046727;28;20201;-47
2022/07/15 02:10:07;;;;;;;5.63;1.80;;;19.10;84.50;;;;;;5041518;28;20205;-47
2022/07/15 02:12:37;;;;;;;3.45;1.73;;;19.00;84.50;;;;;;5028765;28;20197;-47
2022/07/15 02:15:08;;;;;;;6.07;1.88;;;19.00;84.70;;;;;;5030164;28;20267;-47
2022/07/15 02:17:39;;;;;;;6.60;2.30;;;19.00;84.70;;;;;;5030040;28;20706;-47
2022/07/15 02:20:07;;;;;;;5.97;1.60;;;18.90;84.70;;;;;;5030694;28;20218;-46
2022/07/15 02:22:34;;;;;;;3.50;1.80;;;18.90;84.90;;;;;;5043480;28;20307;-47
2022/07/15 02:25:05;;;;;;;10.30;1.83;;;18.90;85.00;;;;;;5049579;28;20215;-48
2022/07/15 02:27:32;;;;;;;4.78;1.60;;;18.80;84.90;;;;;;5048375;28;20204;-46
2022/07/15 02:30:02;;;;;;;8.70;2.30;;;18.80;85.50;;;;;;5049750;28;20235;-47
2022/07/15 02:32:32;;;;;;;3.67;1.55;;;18.80;85.10;;;;;;5049222;28;20216;-47
2022/07/15 02:35:02;;;;;;;3.50;1.58;;;18.70;84.90;;;;;;5046907;28;20234;-47
2022/07/15 02:37:29;;;;;;;6.57;2.03;;;18.70;85.00;;;;;;5044038;28;20709;-48
2022/07/15 02:39:56;;;;;;;5.43;1.92;;;18.70;85.10;;;;;;5046932;28;20683;-47
2022/07/15 02:42:24;;;;;;;7.25;1.80;;;18.70;85.20;;;;;;5049537;28;20200;-47
2022/07/15 02:44:53;;;;;;;4.05;1.58;;;18.60;85.20;;;;;;5049616;28;20633;-47
2022/07/15 02:47:20;;;;;;;5.13;1.63;;;18.60;85.80;;;;;;5044951;28;20201;-47
2022/07/15 02:49:50;;;;;;;5.93;1.63;;;18.60;85.20;;;;;;5044471;28;20248;-47
2022/07/15 02:52:19;;;;;;;5.72;1.75;;;18.60;85.20;;;;;;5043634;28;20596;-46
2022/07/15 02:54:49;;;;;;;4.68;1.55;;;18.50;85.20;;;;;;5028132;28;20275;-47
2022/07/15 02:57:16;;;;;;;5.40;1.70;;;18.50;85.40;;;;;;5047861;28;20580;-47
2022/07/15 02:59:43;;;;;;;5.93;1.67;;;18.50;85.50;;;;;;5052100;28;20321;-46
2022/07/15 03:02:11;;;;;;;3.00;1.55;;;18.50;85.30;;;;;;5068581;28;20678;-47
2022/07/15 03:04:38;;;;;;;4.95;1.70;;;18.40;85.20;;;;;;5067835;28;20633;-47
2022/07/15 03:07:05;;;;;;;5.78;2.00;;;18.40;85.50;;;;;;5057713;28;20279;-47
2022/07/15 03:09:33;;;;;;;6.55;2.22;;;18.40;85.40;;;;;;5038361;28;20258;-47
2022/07/15 03:12:00;;;;;;;4.25;1.85;;;18.40;85.40;;;;;;5029734;28;20707;-49
2022/07/15 03:14:29;;;;;;;2.58;1.70;;;18.40;85.50;;;;;;5048944;28;20204;-49
2022/07/15 03:16:59;;;;;;;5.95;1.85;;;18.40;85.70;;;;;;5046839;28;20319;-49
2022/07/15 03:19:26;;;;;;;6.32;1.60;;;18.30;85.60;;;;;;5047536;28;20710;-50
2022/07/15 03:21:56;;;;;;;3.65;1.50;;;18.30;85.70;;;;;;5047460;28;20200;-47
2022/07/15 03:24:28;;;;;;;4.35;1.88;;;18.30;85.50;;;;;;5048325;28;20257;-47
2022/07/15 03:26:58;;;;;;;5.47;1.70;;;18.20;85.90;;;;;;5046600;28;20208;-46
2022/07/15 03:29:26;;;;;;;4.38;1.73;;;18.20;85.80;;;;;;5044494;28;20221;-46
2022/07/15 03:31:56;;;;;;;4.97;1.45;;;18.20;85.60;;;;;;5028658;28;20201;-46
2022/07/15 03:34:26;;;;;;;7.57;1.83;;;18.20;85.80;;;;;;5028737;28;20228;-44
2022/07/15 03:36:54;;;;;;;3.53;1.70;;;18.20;85.90;;;;;;5028270;28;20320;-46
2022/07/15 03:39:22;;;;;;;5.07;1.50;;;18.10;85.60;;;;;;5028548;28;20576;-46
2022/07/15 03:41:49;;;;;;;6.93;2.13;;;18.10;85.90;;;;;;5028394;28;20224;-45
2022/07/15 03:44:17;;;;;;;5.32;1.80;;;18.10;86.10;;;;;;5029066;28;20699;-46
2022/07/15 03:46:45;;;;;;;6.03;1.92;;;18.10;86.10;;;;;;5033561;28;20215;-46
2022/07/15 03:49:18;;;;;;;4.80;1.60;;;18.10;86.20;;;;;;5028842;28;20236;-45
2022/07/15 03:51:45;;;;;;;6.93;1.85;;;18.00;86.00;;;;;;5028401;28;20217;-45
2022/07/15 03:54:13;;;;;;;5.47;1.83;;;18.00;86.80;;;;;;5027788;28;20196;-46
2022/07/15 03:56:47;;;;;;;4.75;1.50;;;18.00;86.50;;;;;;5028580;28;20236;-49
2022/07/15 03:59:15;;;;;;;2.72;1.40;;;18.00;86.30;;;;;;5028304;28;20232;-49
2022/07/15 04:01:43;;;;;;;7.28;1.85;;;17.90;86.40;;;;;;5034621;28;20201;-49
2022/07/15 04:04:10;;;;;;;3.03;1.52;;;17.90;86.40;;;;;;5039035;28;20192;-49
2022/07/15 04:06:38;;;;;;;4.28;1.83;;;17.80;86.40;;;;;;5052842;28;20200;-49
2022/07/15 04:09:09;;;;;;;8.80;2.30;;;17.80;86.50;;;;;;5054657;28;20239;-48
2022/07/15 04:11:41;;;;;;;5.22;1.85;;;17.80;86.60;;;;;;5036573;28;20250;-49
2022/07/15 04:14:13;;;;;;;7.28;1.70;;;17.80;86.60;;;;;;5049520;28;20228;-49
2022/07/15 04:16:41;;;;;;;5.93;1.90;;;17.80;86.70;;;;;;5036396;28;20235;-49
2022/07/15 04:19:09;;;;;;;7.43;1.88;;;17.70;87.40;;;;;;5035074;28;20710;-49
2022/07/15 04:21:38;;;;;;;4.22;1.95;;;17.70;86.80;;;;;;5048356;28;20264;-49
2022/07/15 04:24:06;;;;;;;4.20;1.60;;;17.70;86.70;;;;;;5054302;28;21013;-49
2022/07/15 04:26:35;;;;;;;3.93;1.77;;;17.70;86.70;;;;;;5054716;28;20578;-49
2022/07/15 04:29:05;;;;;;;5.85;2.25;;;17.70;86.80;;;;;;5054580;28;20231;-49
2022/07/15 04:31:32;;;;;;;5.45;2.50;;;17.70;87.00;;;;;;5052639;28;20711;-49
2022/07/15 04:33:59;;;;;;;6.13;2.33;;;17.70;86.90;;;;;;5052354;28;20242;-49
2022/07/15 04:36:27;;;;;;;5.03;2.17;;;17.70;86.90;;;;;;5034455;28;20699;-49
2022/07/15 04:38:54;;;;;;;6.75;2.25;;;17.80;87.00;;;;;;5034338;28;20738;-48
2022/07/15 04:41:26;;;;;;;5.85;1.77;;;17.80;87.00;;;;;;5033358;28;20205;-48
2022/07/15 04:43:53;;;;;;;6.43;2.40;;;17.80;87.20;;;;;;5034653;28;20311;-49
2022/07/15 04:46:20;;;;;;;7.45;2.10;;;17.80;87.10;;;;;;5033855;28;20217;-49
2022/07/15 04:51:34;;;;;;;3.97;2.03;;;17.80;87.20;;;;;;5035226;28;20216;-49
2022/07/15 04:54:03;;;;;;;4.05;1.73;;;17.90;87.40;;;;;;5034713;28;20205;-49
2022/07/15 04:56:36;;;;;;;5.60;1.85;;;17.90;87.40;;;;;;5054192;28;20547;-48
2022/07/15 04:59:03;;;;;;;6.22;2.38;;;17.90;87.40;;;;;;5052704;28;20242;-49
2022/07/15 05:01:30;;;;;;;5.75;2.17;;;17.90;87.50;;;;;;5071603;28;20738;-49
2022/07/15 05:04:03;;;;;;;4.90;2.67;;;17.90;87.50;;;;;;5072953;28;20215;-50
2022/07/15 05:06:32;;;;;;;5.03;2.50;;;18.00;87.70;;;;;;5067266;28;20296;-49
2022/07/15 05:09:02;;;;;;;7.70;2.70;;;18.00;87.60;;;;;;5033347;28;20209;-49
2022/07/15 05:11:30;;;;;;;6.60;2.67;;;18.00;87.70;;;;;;5038545;28;20245;-49
2022/07/15 05:13:57;;;;;;;9.27;2.65;;;18.10;87.70;;;;;;5054536;28;20261;-49
2022/07/15 05:16:24;;;;;;;9.30;3.13;;;18.10;87.80;;;;;;5053789;28;20631;-49
2022/07/15 05:18:54;;;;;;;8.18;3.00;;;18.20;88.10;;;;;;5048981;28;20228;-49
2022/07/15 05:21:21;;;;;;;7.55;3.00;;;18.20;88.10;;;;;;5051351;28;20326;-50
2022/07/15 05:23:52;;;;;;;5.18;2.78;;;18.20;88.10;;;;;;5048274;28;20203;-49
2022/07/15 05:26:40;;;;;;;7.97;3.45;;;18.30;88.40;;;;;;5039748;28;20200;-49
2022/07/15 05:29:13;;;;;;;3.92;2.55;;;18.30;88.50;;;;;;5041267;28;20334;-50
2022/07/15 05:31:41;;;;;;;7.25;2.97;;;18.30;88.50;;;;;;5050461;28;20280;-49
2022/07/15 05:34:10;;;;;;;7.20;3.17;;;18.30;88.50;;;;;;5047340;28;20467;-50
2022/07/15 05:36:40;;;;;;;6.97;3.35;;;18.30;89.30;;;;;;5030734;28;20240;-50
2022/07/15 05:39:07;;;;;;;6.32;3.00;;;18.30;88.60;;;;;;5030249;28;20259;-49
2022/07/15 05:41:35;;;;;;;8.10;3.05;;;18.30;88.70;;;;;;5030811;28;20229;-49
2022/07/15 05:44:02;;;;;;;4.68;2.80;;;18.40;88.80;;;;;;5045095;28;20211;-49
2022/07/15 05:46:32;;;;;;;9.35;3.25;;;18.30;88.70;;;;;;5031275;28;20244;-50
2022/07/15 05:48:59;;;;;;;4.53;2.53;;;18.40;88.90;;;;;;5029079;28;20806;-49
2022/07/15 05:51:26;;;;;;;5.32;2.65;;;18.40;88.80;;;;;;5044305;28;20203;-50
2022/07/15 05:53:56;;;;;;;4.40;2.55;;;18.40;88.80;;;;;;5049785;28;20258;-49
2022/07/15 05:56:23;;;;;;;7.45;3.22;;;18.50;88.80;;;;;;5050477;28;20258;-49
2022/07/15 05:58:51;;;;;;;8.18;3.08;;;18.50;89.10;;;;;;5031456;28;20236;-50
2022/07/15 06:01:23;;;;;;;5.20;2.05;;;18.50;88.90;;;;;;5065681;28;20228;-49
2022/07/15 06:03:55;;;;;;;5.75;2.60;;;18.60;89.00;;;;;;5037548;28;20224;-50
2022/07/15 06:06:22;;;;;;;8.10;2.60;;;18.60;89.00;;;;;;5030038;28;20631;-49
2022/07/15 06:08:51;;;;;;;5.78;2.50;;;18.60;89.00;;;;;;5029601;28;20205;-49
2022/07/15 06:11:19;;;;;;;6.28;2.15;;;18.70;89.00;;;;;;5028740;28;20632;-49
2022/07/15 06:13:48;;;;;;;4.95;2.08;;;18.70;88.90;;;;;;5029796;28;20569;-49
2022/07/15 06:16:16;;;;;;;6.43;2.30;;;18.70;89.00;;;;;;5033773;28;20208;-49
2022/07/15 06:18:43;;;;;;;7.95;2.28;;;18.70;89.00;;;;;;5050073;28;20306;-49
2022/07/15 06:21:11;;;;;;;5.57;1.75;;;18.70;89.00;;;;;;5031281;28;20216;-50
2022/07/15 06:23:40;;;;;;;7.72;1.80;;;18.80;89.30;;;;;;5029459;28;20580;-50
2022/07/15 06:26:09;;;;;;;8.15;1.98;;;18.80;89.20;;;;;;5028453;28;20208;-52
2022/07/15 06:28:36;;;;;;;4.65;1.73;;;18.80;89.40;;;;;;5028982;28;20228;-50
2022/07/15 06:31:06;;;;;;;4.78;1.70;;;18.90;89.30;;;;;;5028008;28;20251;-49
2022/07/15 06:33:34;;;;;;;6.50;2.58;;;18.90;89.40;;;;;;5033999;28;20281;-50
2022/07/15 06:36:06;;;;;;;4.90;1.63;;;18.90;89.30;;;;;;5039495;28;20678;-50
2022/07/15 06:38:33;;;;;;;8.73;2.38;;;18.90;89.40;;;;;;5027707;28;20591;-49
2022/07/15 06:41:02;;;;;;;9.30;2.38;;;19.00;89.30;;;;;;5029185;28;20219;-49
2022/07/15 06:43:30;;;;;;;5.25;2.00;;;19.00;89.60;;;;;;5029447;28;20197;-49
2022/07/15 06:45:59;;;;;;;6.72;2.08;;;19.00;89.40;;;;;;5029522;28;20196;-50
2022/07/15 06:48:27;;;;;;;6.97;1.90;;;19.00;89.60;;;;;;5027521;28;20729;-47
2022/07/15 06:50:56;;;;;;;6.28;1.80;;;19.00;89.40;;;;;;5029888;28;20205;-47
2022/07/15 06:53:25;;;;;;;5.38;1.40;;;19.00;89.40;;;;;;5032354;28;20208;-47
2022/07/15 06:55:52;;;;;;;4.82;1.52;;;19.10;89.80;;;;;;5049253;28;20204;-48
2022/07/15 06:58:24;;;;;;;4.78;1.52;;;19.10;89.60;;;;;;5048619;28;20610;-47
2022/07/15 07:00:51;;;;;;;3.75;1.20;;;19.10;89.60;;;;;;5061355;28;20269;-47
2022/07/15 07:03:21;;;;;;;4.05;0.98;;;19.10;89.40;;;;;;5068832;28;20200;-47
2022/07/15 07:06:13;;;;;;;5.22;0.95;;;19.10;89.50;;;;;;5068977;28;20443;-46
2022/07/15 07:08:43;;;;;;;6.55;0.95;;;19.10;89.30;;;;;;5029116;28;20685;-47
2022/07/15 07:11:10;;;;;;;3.50;1.15;;;19.10;89.00;;;;;;5034046;28;20224;-47
2022/07/15 07:13:37;;;;;;;3.40;0.90;;;19.10;88.90;;;;;;5029266;28;20193;-47
2022/07/15 07:16:05;;;;;;;5.70;1.30;;;19.10;89.10;;;;;;5028981;28;20702;-48
2022/07/15 07:18:33;;;;;;;2.53;0.80;;;19.10;89.00;;;;;;5029183;28;20255;-46
2022/07/15 07:21:03;;;;;;;2.20;0.75;;;19.10;88.90;;;;;;5030565;28;20280;-46
2022/07/15 07:23:34;;;;;;;2.75;0.88;;;19.20;89.00;;;;;;5027524;28;20240;-48
2022/07/15 07:26:03;;;;;;;4.78;1.00;;;19.20;88.90;;;;;;5029350;28;20211;-48
2022/07/15 07:28:30;;;;;;;4.18;0.98;;;19.20;88.90;;;;;;5041279;28;20262;-47
2022/07/15 07:30:57;;;;;;;4.68;0.80;;;19.30;88.90;;;;;;5047907;28;20250;-48
2022/07/15 07:33:25;;;;;;;2.70;1.00;;;19.30;88.80;;;;;;5047722;28;20196;-47
2022/07/15 07:35:57;;;;;;;4.55;0.70;;;19.30;88.70;;;;;;5034569;28;20201;-47
2022/07/15 07:38:27;;;;;;;3.70;0.82;;;19.40;88.70;;;;;;5028109;28;20220;-48
2022/07/15 07:40:56;;;;;;;2.58;0.70;;;19.40;88.80;;;;;;5028536;28;20217;-47
2022/07/15 07:43:24;;;;;;;2.95;0.80;;;19.40;88.70;;;;;;5028123;28;20636;-47
2022/07/15 07:45:51;;;;;;;4.10;0.70;;;19.40;88.50;;;;;;5028580;28;20209;-49
2022/07/15 07:48:21;;;;;;;2.42;0.77;;;19.40;88.60;;;;;;5038656;28;20216;-49
2022/07/15 07:50:53;;;;;;;2.42;0.82;;;19.50;88.70;;;;;;5028123;28;20255;-49
2022/07/15 07:53:22;;;;;;;3.38;0.82;;;19.50;88.80;;;;;;5027681;28;20270;-50
2022/07/15 07:55:50;;;;;;;4.25;1.10;;;19.50;88.80;;;;;;5027955;28;20224;-49
2022/07/15 07:58:20;;;;;;;4.53;0.82;;;19.60;88.80;;;;;;5026954;28;20255;-49
2022/07/15 08:00:52;;;;;;;4.47;0.95;;;19.60;88.80;;;;;;5051904;28;20560;-49
2022/07/15 08:03:21;;;;;;;3.88;1.27;;;19.70;88.80;;;;;;5027924;28;20220;-49
2022/07/15 08:05:49;;;;;;;2.40;0.60;;;19.70;88.50;;;;;;5026836;28;20625;-49
2022/07/15 08:08:37;;;;;;;4.82;0.93;;;19.80;88.60;;;;;;5027532;28;20209;-49
2022/07/15 08:11:04;;;;;;;3.97;0.90;;;19.70;88.60;;;;;;5028179;28;20212;-49
2022/07/15 08:13:31;;;;;;;2.25;0.68;;;19.80;88.80;;;;;;5028026;28;20204;-48
2022/07/15 08:15:59;;;;;;;4.15;1.00;;;19.80;88.70;;;;;;5037605;28;20299;-49
2022/07/15 08:18:37;;;;;;;1.50;0.57;;;19.90;88.80;;;;;;5041578;28;20670;-49
2022/07/15 08:21:05;;;;;;;2.00;0.82;;;19.90;88.90;;;;;;5028045;28;20201;-49
2022/07/15 08:23:35;;;;;;;2.15;0.60;;;19.90;89.00;;;;;;5026189;28;20205;-49
2022/07/15 08:26:04;;;;;;;2.17;0.80;;;20.00;89.20;;;;;;5026836;28;20192;-49
2022/07/15 08:28:34;;;;;;;3.30;0.85;;;20.00;89.10;;;;;;5027859;28;20587;-48
2022/07/15 08:31:21;;;;;;;3.50;0.70;;;20.10;89.10;;;;;;5028094;28;20196;-48
2022/07/15 08:33:53;;;;;;;2.83;0.77;;;20.10;89.10;;;;;;5028453;28;20216;-48
2022/07/15 08:36:23;;;;;;;3.22;0.68;;;20.20;89.10;;;;;;5032193;28;20230;-49
2022/07/15 08:38:52;;;;;;;3.13;0.80;;;20.30;89.20;;;;;;5026092;28;20313;-48
2022/07/15 08:41:22;;;;;;;3.10;0.88;;;20.30;89.10;;;;;;5027974;28;20205;-48
2022/07/15 08:43:49;;;;;;;1.98;0.50;;;20.30;89.00;;;;;;5026184;28;20581;-48
2022/07/15 08:46:18;;;;;;;1.90;0.70;;;20.40;88.90;;;;;;5027620;28;20247;-50
2022/07/15 08:48:51;;;;;;;3.50;0.65;;;20.40;88.90;;;;;;5028323;28;20201;-50
2022/07/15 08:51:24;;;;;;;2.90;0.80;;;20.40;89.00;;;;;;5027915;28;20204;-47
2022/07/15 08:53:55;;;;;;;1.48;0.73;;;20.50;89.10;;;;;;5038998;28;20755;-48
2022/07/15 08:56:23;;;;;;;2.65;0.65;;;20.50;89.10;;;;;;5034173;28;20214;-49
2022/07/15 08:58:51;;;;;;;3.58;0.70;;;20.50;89.10;;;;;;5029823;28;20247;-49
2022/07/15 09:01:32;;;;;;;1.80;0.52;;;20.60;89.10;;;;;;5065555;28;20290;-48
2022/07/15 09:04:00;;;;;;;4.05;0.70;;;20.70;89.20;;;;;;5071136;28;20218;-48
2022/07/15 09:06:39;;;;;;;2.05;0.50;;;20.70;89.30;;;;;;5057289;28;20595;-50
2022/07/15 09:09:25;;;;;;;5.05;0.80;;;20.80;89.60;;;;;;5031653;28;20214;-48
2022/07/15 09:12:08;;;;;;;1.75;0.63;;;20.80;89.60;;;;;;5049580;28;20302;-48
2022/07/15 09:14:44;;;;;;;3.88;0.85;;;20.90;89.30;;;;;;5049602;28;20200;-48
2022/07/15 09:17:12;;;;;;;1.30;0.57;;;20.90;89.30;;;;;;5050421;28;20589;-48
2022/07/15 09:19:59;;;;;;;1.55;0.57;;;20.80;89.10;;;;;;5049551;28;20228;-48
2022/07/15 09:22:31;;;;;;;2.35;0.80;;;20.90;89.20;;;;;;5049358;28;20200;-49
2022/07/15 09:25:11;;;;;;;2.45;0.55;;;20.90;89.20;;;;;;5049657;28;20239;-50
2022/07/15 09:27:43;;;;;;;3.92;0.73;;;20.90;89.20;;;;;;5036403;28;20478;-47
2022/07/15 09:36:03;;;;;;;3.55;0.63;;;21.00;89.40;;;;;;5030137;28;20211;-47
2022/07/15 09:38:57;;;;;;;1.83;0.70;;;21.10;89.50;;;;;;5028769;28;20223;-48
2022/07/15 09:41:31;;;;;;;2.83;0.52;;;21.20;89.40;;;;;;5029857;28;20215;-49
2022/07/15 09:44:07;;;;;;;2.47;0.85;;;21.20;89.30;;;;;;5039076;28;20220;-49
2022/07/15 09:46:43;;;;;;;5.68;0.73;;;21.20;89.20;;;;;;5048722;28;20611;-49
2022/07/15 09:49:13;;;;;;;3.25;0.95;;;21.30;89.20;;;;;;5050475;28;20349;-49
2022/07/15 09:51:55;;;;;;;2.08;0.80;;;21.20;89.00;;;;;;5050327;28;20377;-49
2022/07/15 09:54:30;;;;;;;2.05;0.47;;;21.30;89.10;;;;;;5049984;28;20212;-49
2022/07/15 09:57:00;;;;;;;1.30;0.50;;;21.30;89.10;;;;;;5049352;28;20763;-48
2022/07/15 09:59:29;;;;;;;1.98;0.77;;;21.30;88.80;;;;;;5051010;28;20745;-49
2022/07/15 10:01:57;;;;;;;0.73;0.40;;;21.30;88.80;;;;;;5037467;28;20215;-49
2022/07/15 10:04:27;;;;;;;1.98;0.60;;;21.30;88.70;;;;;;5038539;28;20205;-49
2022/07/15 10:06:56;;;;;;;2.65;0.63;;;21.30;88.70;;;;;;5039819;28;20561;-49
2022/07/15 10:09:44;;;;;;;1.05;0.47;;;21.40;88.90;;;;;;5041468;28;20216;-49
2022/07/15 10:12:26;;;;;;;1.00;0.50;;;21.40;88.90;;;;;;5029803;28;20209;-48
2022/07/15 10:15:05;;;;;;;4.50;0.90;;;21.40;88.60;;;;;;5039014;28;20215;-48
2022/07/15 10:17:41;;;;;;;2.80;0.75;;;21.40;88.30;;;;;;5044088;28;20232;-49
2022/07/15 10:20:27;;;;;;;2.35;0.40;;;21.40;88.20;;;;;;5030099;28;20278;-47
2022/07/15 10:23:18;;;;;;;2.03;0.60;;;21.50;88.30;;;;;;5028979;28;20288;-48
2022/07/15 10:25:57;;;;;;;4.05;0.90;;;21.50;88.30;;;;;;5029661;28;20275;-48
2022/07/15 10:28:43;;;;;;;1.80;0.57;;;21.50;88.60;;;;;;5029383;28;20656;-47
2022/07/15 10:31:16;;;;;;;1.83;0.60;;;21.50;88.40;;;;;;5030252;28;20698;-49
2022/07/15 10:34:06;;;;;;;3.03;0.80;;;21.60;87.90;;;;;;5029546;28;20296;-50
2022/07/15 10:36:46;;;;;;;3.75;0.65;;;21.60;88.20;;;;;;5029266;28;20576;-48
2022/07/15 10:39:18;;;;;;;2.10;0.68;;;21.60;88.30;;;;;;5029117;28;20731;-49
2022/07/15 10:41:56;;;;;;;3.35;0.88;;;21.70;88.20;;;;;;5029217;28;20728;-47
2022/07/15 10:44:31;;;;;;;2.63;0.52;;;21.70;88.00;;;;;;5027721;28;20204;-47
2022/07/15 10:47:14;;;;;;;1.45;0.50;;;21.70;87.80;;;;;;5027024;28;20217;-48
2022/07/15 10:49:44;;;;;;;1.33;0.50;;;21.80;88.20;;;;;;5044767;28;20847;-48
2022/07/15 10:52:18;;;;;;;1.38;0.43;;;21.80;88.00;;;;;;5036419;28;20205;-48
2022/07/15 10:54:54;;;;;;;3.53;0.70;;;21.90;87.30;;;;;;5027058;28;20351;-48
2022/07/15 10:57:40;;;;;;;2.78;0.43;;;21.90;87.20;;;;;;5028754;28;20238;-48
2022/07/15 11:00:28;;;;;;;2.10;0.50;;;21.90;87.20;;;;;;5041305;28;20215;-47
2022/07/15 11:03:08;;;;;;;1.58;0.52;;;21.90;87.40;;;;;;5067835;28;20198;-48
2022/07/15 11:05:46;;;;;;;0.80;0.40;;;22.00;87.40;;;;;;5052888;28;20212;-48
2022/07/15 11:08:47;;;;;;;1.25;0.40;;;22.00;86.90;;;;;;5032759;28;20201;-47
2022/07/15 11:11:14;;;;;;;1.60;0.60;;;22.10;87.70;;;;;;5026126;28;20299;-48
2022/07/15 11:13:46;;;;;;;2.10;0.70;;;22.10;87.40;;;;;;5048936;28;20258;-47
2022/07/15 11:16:16;;;;;;;0.73;0.30;;;22.20;87.10;;;;;;5048707;28;20266;-48
2022/07/15 11:18:51;;;;;;;1.40;0.60;;;22.20;87.00;;;;;;5048820;28;20247;-48
2022/07/15 11:21:22;;;;;;;2.40;0.50;;;22.30;87.10;;;;;;5048556;28;20732;-48
2022/07/15 11:23:56;;;;;;;3.78;0.80;;;22.30;87.00;;;;;;5047360;28;20534;-49
2022/07/15 11:26:47;;;;;;;0.93;0.47;;;22.30;87.00;;;;;;5031091;28;20581;-48
2022/07/15 11:29:16;;;;;;;1.48;0.65;;;22.40;87.40;;;;;;5046899;28;20250;-48
2022/07/15 11:31:51;;;;;;;1.23;0.40;;;22.50;87.40;;;;;;5048346;28;20205;-59
2022/07/15 11:34:20;;;;;;;0.75;0.40;;;22.50;87.60;;;;;;5043509;28;20201;-49
2022/07/15 11:36:58;;;;;;;3.63;0.80;;;22.60;87.50;;;;;;5028295;28;20969;-48
2022/07/15 11:39:28;;;;;;;2.15;0.57;;;22.60;87.60;;;;;;5028463;28;20228;-48
2022/07/15 11:44:51;;;;;;;2.97;0.82;;;22.80;87.80;;;;;;5028181;28;20608;-48
2022/07/15 11:47:22;;;;;;;0.93;0.50;;;22.90;87.50;;;;;;5028373;28;20248;-48
2022/07/15 11:49:57;;;;;;;2.10;0.60;;;22.90;87.30;;;;;;5028422;28;20288;-48
2022/07/15 11:52:26;;;;;;;1.63;0.57;;;23.00;87.20;;;;;;5028528;28;20262;-48
2022/07/15 11:54:53;;;;;;;1.75;0.77;;;23.00;87.20;;;;;;5025369;28;20203;-48
2022/07/15 11:57:20;;;;;;;1.20;0.40;;;23.10;87.70;;;;;;5047279;28;20483;-47
2022/07/15 11:59:57;;;;;;;2.13;0.68;;;23.10;87.60;;;;;;5047494;28;20235;-47
2022/07/15 12:02:26;;;;;;;0.80;0.30;;;23.20;87.90;;;;;;5067613;28;20195;-48
2022/07/15 12:05:04;;;;;;;1.40;0.40;;;23.20;88.00;;;;;;5064208;28;20595;-49
2022/07/15 12:07:47;;;;;;;1.48;0.75;;;23.30;87.40;;;;;;5028304;28;20195;-49
2022/07/15 12:10:15;;;;;;;2.28;0.60;;;23.30;86.70;;;;;;5026223;28;20216;-48
2022/07/15 12:12:54;;;;;;;2.38;0.80;;;23.30;86.70;;;;;;5027573;28;20201;-47
2022/07/15 12:15:21;;;;;;;1.73;0.50;;;23.40;86.80;;;;;;5035372;28;20228;-47
2022/07/15 12:17:49;;;;;;;2.15;0.50;;;23.40;86.90;;;;;;5031379;28;20303;-47
2022/07/15 12:20:17;;;;;;;0.63;0.38;;;23.40;87.00;;;;;;5027758;28;20232;-49
2022/07/15 12:23:07;;;;;;;4.80;0.70;;;23.40;87.90;;;;;;5026371;28;20232;-50
2022/07/15 12:25:35;;;;;;;1.65;0.70;;;23.50;86.90;;;;;;5027998;28;20232;-49
2022/07/15 12:28:02;;;;;;;2.65;0.70;;;23.50;86.80;;;;;;5030970;28;20216;-48
2022/07/15 12:30:32;;;;;;;2.75;0.60;;;23.50;86.90;;;;;;5032447;28;20205;-48
2022/07/15 12:33:14;;;;;;;0.68;0.47;;;23.60;87.50;;;;;;5031268;28;20208;-48
2022/07/15 12:35:43;;;;;;;1.05;0.60;;;23.70;87.70;;;;;;5031905;28;20322;-49
2022/07/15 12:38:27;;;;;;;6.47;1.10;;;23.80;88.00;;;;;;5029549;28;20205;-49
2022/07/15 12:41:26;;;;;;;1.10;0.65;;;23.90;87.50;;;;;;5031492;28;20302;-48
2022/07/15 12:43:57;;;;;;;2.25;0.80;;;24.00;87.30;;;;;;5029253;28;20193;-48
2022/07/15 12:46:46;;;;;;;2.88;0.80;;;24.00;87.30;;;;;;5031366;28;20247;-48
2022/07/15 12:49:42;;;;;;;2.75;0.70;;;24.00;87.00;;;;;;5031404;28;20215;-48
2022/07/15 12:52:12;;;;;;;1.85;0.85;;;24.10;87.20;;;;;;5030198;28;20274;-48
2022/07/15 12:54:40;;;;;;;2.08;0.70;;;24.20;87.30;;;;;;5030807;28;20201;-48
2022/07/15 12:57:35;;;;;;;1.85;0.70;;;24.20;87.40;;;;;;5044849;28;20253;-47
2022/07/15 13:00:23;;;;;;;3.60;1.00;;;24.30;87.40;;;;;;5056505;28;20216;-48
2022/07/15 13:03:12;;;;;;;1.17;0.63;;;24.30;87.90;;;;;;5070729;28;20221;-48
2022/07/15 13:05:54;;;;;;;5.25;0.95;;;24.30;86.80;;;;;;5039007;28;20204;-49
2022/07/15 13:08:26;;;;;;;1.27;0.88;;;24.30;86.40;;;;;;5029494;28;20651;-49
2022/07/15 13:10:56;;;;;;;1.60;0.70;;;24.30;86.10;;;;;;5031069;28;20224;-49
2022/07/15 13:13:27;;;;;;;2.42;0.70;;;24.40;86.90;;;;;;5030009;28;20276;-49
2022/07/15 13:15:58;;;;;;;1.70;0.90;;;24.40;87.00;;;;;;5029717;28;20212;-48
2022/07/15 13:18:29;;;;;;;2.20;0.88;;;24.50;87.20;;;;;;5030481;28;20209;-49
2022/07/15 13:20:57;;;;;;;2.42;1.13;;;24.50;87.10;;;;;;5030163;28;20217;-48